Time;durP1;ratioP1;P1;durP2;ratioP2;P2;SDS_P1;SDS_P2;PMS_P1;PMS_P2;Temp;Humidity;BMP_temperature;BMP_pressure;BME280_temperature;BME280_humidity;BME280_pressure;Samples;Min_cycle;Max_cycle;Signal;HPM_P1;HPM_P2
2022/01/30 00:00:17;;;;;;;9.60;1.43;;;10.20;42.10;;;;;;5075347;28;20411;-50
2022/01/30 00:02:43;;;;;;;1.20;0.60;;;10.20;42.60;;;;;;5074753;28;20169;-50
2022/01/30 00:05:09;;;;;;;1.63;0.93;;;10.10;43.30;;;;;;5073763;28;20477;-50
2022/01/30 00:07:35;;;;;;;1.10;0.70;;;9.90;44.00;;;;;;5074986;28;20168;-50
2022/01/30 00:10:01;;;;;;;1.00;0.30;;;9.90;44.70;;;;;;5074922;28;20168;-50
2022/01/30 00:12:42;;;;;;;0.98;0.22;;;9.80;45.50;;;;;;5073575;28;20171;-50
2022/01/30 00:15:08;;;;;;;3.83;0.88;;;9.70;45.40;;;;;;5074912;28;20156;-50
2022/01/30 00:17:40;;;;;;;1.10;0.50;;;9.70;45.90;;;;;;5074687;28;20270;-50
2022/01/30 00:20:12;;;;;;;1.40;0.40;;;9.70;46.00;;;;;;5074847;28;20250;-50
2022/01/30 00:22:46;;;;;;;1.00;0.30;;;9.70;46.20;;;;;;5074754;28;20264;-50
2022/01/30 00:25:24;;;;;;;4.93;0.88;;;9.60;46.50;;;;;;5074556;28;20265;-50
2022/01/30 00:28:01;;;;;;;1.98;0.90;;;9.60;46.60;;;;;;5073392;28;20591;-50
2022/01/30 00:30:32;;;;;;;3.70;0.73;;;9.50;47.60;;;;;;5074806;28;20201;-50
2022/01/30 00:32:58;;;;;;;1.10;0.50;;;9.40;48.40;;;;;;5074456;28;20199;-50
2022/01/30 00:35:24;;;;;;;1.00;0.30;;;9.40;48.40;;;;;;5074474;28;20199;-50
2022/01/30 00:37:49;;;;;;;2.60;0.53;;;9.30;48.40;;;;;;5074350;28;20197;-50
2022/01/30 00:40:15;;;;;;;1.10;0.40;;;9.30;48.60;;;;;;5074398;28;20165;-50
2022/01/30 00:42:41;;;;;;;1.30;0.53;;;9.30;48.20;;;;;;5074594;28;20611;-50
2022/01/30 00:45:07;;;;;;;3.10;0.50;;;9.50;47.60;;;;;;5074257;28;20199;-50
2022/01/30 00:47:33;;;;;;;1.00;0.30;;;9.50;47.00;;;;;;5074516;28;20176;-50
2022/01/30 00:49:58;;;;;;;1.00;0.30;;;9.40;46.80;;;;;;5074255;28;20176;-50
2022/01/30 00:52:24;;;;;;;1.20;0.37;;;9.40;46.40;;;;;;5074193;28;20164;-50
2022/01/30 00:54:50;;;;;;;5.67;0.70;;;9.40;46.70;;;;;;5074163;28;20248;-50
2022/01/30 00:57:15;;;;;;;3.03;0.57;;;9.30;46.70;;;;;;5073974;28;20671;-50
2022/01/30 00:59:41;;;;;;;1.10;0.50;;;9.30;46.70;;;;;;5074151;28;20635;-50
2022/01/30 01:02:06;;;;;;;1.00;0.23;;;9.40;45.90;;;;;;5074244;28;20246;-50
2022/01/30 01:04:32;;;;;;;1.50;0.50;;;9.50;45.80;;;;;;5073937;28;20161;-50
2022/01/30 01:06:58;;;;;;;1.10;0.30;;;9.60;45.40;;;;;;5074029;28;20166;-50
2022/01/30 01:09:31;;;;;;;4.13;0.90;;;9.50;45.30;;;;;;5073890;28;20642;-50
2022/01/30 01:12:40;;;;;;;1.10;0.50;;;9.50;45.70;;;;;;5073808;28;20249;-50
2022/01/30 01:20:58;;;;;;;1.40;0.60;;;9.50;43.50;;;;;;5073846;28;20670;-50
2022/01/30 01:23:33;;;;;;;1.48;0.73;;;9.40;43.00;;;;;;5073511;28;20627;-50
2022/01/30 01:26:00;;;;;;;1.40;0.73;;;9.40;42.20;;;;;;5073771;28;20168;-50
2022/01/30 01:28:27;;;;;;;1.20;0.50;;;9.30;42.70;;;;;;5073643;28;20187;-50
2022/01/30 01:30:53;;;;;;;3.35;1.08;;;9.10;42.20;;;;;;5072302;28;20600;-50
2022/01/30 01:33:21;;;;;;;1.00;0.40;;;9.10;42.20;;;;;;5073559;28;20173;-50
2022/01/30 01:35:47;;;;;;;3.05;0.65;;;9.10;41.70;;;;;;5073584;28;20176;-50
2022/01/30 01:38:14;;;;;;;1.97;0.83;;;9.10;41.90;;;;;;5073406;28;20204;-50
2022/01/30 01:40:44;;;;;;;1.00;0.30;;;9.10;41.10;;;;;;5073506;28;20221;-50
2022/01/30 01:43:10;;;;;;;1.40;0.60;;;9.00;41.80;;;;;;5073760;28;20159;-50
2022/01/30 01:45:39;;;;;;;3.60;0.40;;;9.10;41.20;;;;;;5073400;28;20238;-50
2022/01/30 01:48:13;;;;;;;7.60;0.70;;;9.10;40.50;;;;;;5073776;28;20180;-50
2022/01/30 01:50:43;;;;;;;2.20;0.98;;;9.00;39.50;;;;;;5073509;28;20212;-50
2022/01/30 01:53:11;;;;;;;3.58;0.52;;;9.00;39.80;;;;;;5073418;28;20175;-50
2022/01/30 01:55:38;;;;;;;1.30;0.70;;;9.00;40.50;;;;;;5073261;28;20165;-50
2022/01/30 01:58:04;;;;;;;3.10;0.52;;;9.10;40.30;;;;;;5073296;28;20230;-50
2022/01/30 02:00:31;;;;;;;1.20;0.80;;;9.20;39.70;;;;;;5073292;28;20541;-50
2022/01/30 02:02:56;;;;;;;0.90;0.30;;;9.20;40.40;;;;;;5073370;28;20165;-50
2022/01/30 02:05:23;;;;;;;3.00;0.50;;;9.20;40.10;;;;;;5073259;28;20179;-50
2022/01/30 02:13:37;;;;;;;2.55;0.63;;;9.00;41.10;;;;;;5073195;28;20179;-50
2022/01/30 02:26:49;;;;;;;1.00;0.40;;;9.10;40.60;;;;;;5077011;28;20631;-50
2022/01/30 02:29:15;;;;;;;1.00;0.30;;;9.10;41.00;;;;;;5076889;28;20210;-50
2022/01/30 02:31:42;;;;;;;1.00;0.30;;;9.00;41.30;;;;;;5076860;28;20156;-50
2022/01/30 02:34:08;;;;;;;1.27;0.32;;;9.10;40.80;;;;;;5077009;28;20234;-50
2022/01/30 02:36:50;;;;;;;1.10;0.40;;;9.20;40.60;;;;;;5075382;28;20201;-50
2022/01/30 02:39:17;;;;;;;2.75;0.43;;;9.20;41.00;;;;;;5076903;28;20183;-50
2022/01/30 02:41:43;;;;;;;11.38;0.82;;;9.20;41.00;;;;;;5076743;28;20513;-50
2022/01/30 02:44:37;;;;;;;1.08;0.45;;;9.20;40.40;;;;;;5076639;28;20219;-50
2022/01/30 02:47:00;;;;;;;1.55;0.57;;;9.20;39.70;;;;;;5076281;28;20193;-50
2022/01/30 02:49:40;;;;;;;2.85;1.00;;;9.20;39.30;;;;;;5076476;28;20250;-50
2022/01/30 02:52:07;;;;;;;7.47;0.95;;;9.20;38.50;;;;;;5076531;28;20253;-50
2022/01/30 02:54:33;;;;;;;2.53;1.02;;;9.10;38.40;;;;;;5076583;28;20180;-50
2022/01/30 02:56:59;;;;;;;1.70;0.47;;;9.00;39.10;;;;;;5076327;28;20675;-50
2022/01/30 02:59:26;;;;;;;4.27;1.07;;;9.20;38.90;;;;;;5076328;28;20187;-49
2022/01/30 03:01:52;;;;;;;1.35;0.40;;;9.30;38.70;;;;;;5076622;28;20751;-49
2022/01/30 03:04:18;;;;;;;1.00;0.30;;;9.30;39.20;;;;;;5076209;28;20178;-50
2022/01/30 03:06:45;;;;;;;1.00;0.40;;;9.30;39.20;;;;;;5076278;28;20505;-49
2022/01/30 03:09:11;;;;;;;1.35;0.35;;;9.30;38.80;;;;;;5076325;28;20442;-50
2022/01/30 03:11:37;;;;;;;1.27;0.52;;;9.20;39.70;;;;;;5076404;28;20182;-50
2022/01/30 03:14:05;;;;;;;1.00;0.30;;;9.20;39.20;;;;;;5076086;28;20169;-50
2022/01/30 03:16:30;;;;;;;3.03;1.10;;;9.20;39.20;;;;;;5076047;28;20512;-49
2022/01/30 03:18:56;;;;;;;1.00;0.30;;;9.10;39.50;;;;;;5075976;28;20175;-49
2022/01/30 03:21:22;;;;;;;1.63;0.37;;;9.20;38.90;;;;;;5076034;28;20171;-50
2022/01/30 03:23:48;;;;;;;4.20;0.60;;;9.30;39.00;;;;;;5075833;28;20457;-50
2022/01/30 03:26:15;;;;;;;1.77;0.43;;;9.20;39.20;;;;;;5076065;28;20444;-49
2022/01/30 03:28:44;;;;;;;2.55;0.55;;;9.20;39.20;;;;;;5075817;28;20414;-50
2022/01/30 03:31:12;;;;;;;1.30;0.40;;;9.20;39.30;;;;;;5075746;28;20203;-50
2022/01/30 03:33:38;;;;;;;3.63;1.25;;;9.10;39.30;;;;;;5075753;28;20167;-50
2022/01/30 03:36:05;;;;;;;3.83;0.52;;;9.10;38.90;;;;;;5073369;28;20230;-50
2022/01/30 03:38:31;;;;;;;2.85;0.68;;;9.10;39.10;;;;;;5075521;28;20279;-50
2022/01/30 03:40:57;;;;;;;1.00;0.30;;;9.00;38.80;;;;;;5074283;28;20660;-50
2022/01/30 03:43:23;;;;;;;1.00;0.32;;;9.10;38.90;;;;;;5075560;28;20406;-50
2022/01/30 03:45:49;;;;;;;1.00;0.40;;;9.00;39.00;;;;;;5075501;28;20674;-50
2022/01/30 03:48:15;;;;;;;1.80;0.55;;;8.90;39.50;;;;;;5075415;28;20190;-49
2022/01/30 03:50:44;;;;;;;1.00;0.30;;;9.00;39.30;;;;;;5075469;28;20173;-50
2022/01/30 03:53:11;;;;;;;1.52;0.60;;;9.00;39.60;;;;;;5075325;28;20248;-50
2022/01/30 03:55:38;;;;;;;1.58;0.80;;;9.10;39.60;;;;;;5075270;28;20181;-50
2022/01/30 03:58:05;;;;;;;5.32;0.95;;;9.10;39.30;;;;;;5075134;28;20206;-50
2022/01/30 04:00:30;;;;;;;2.15;0.52;;;9.00;39.40;;;;;;5075452;28;20571;-50
2022/01/30 04:02:56;;;;;;;1.10;0.40;;;9.10;39.20;;;;;;5073820;28;20170;-50
2022/01/30 04:05:22;;;;;;;1.73;0.43;;;9.00;39.30;;;;;;5075306;28;20230;-50
2022/01/30 04:07:48;;;;;;;1.67;0.93;;;9.00;39.10;;;;;;5075277;28;20456;-49
2022/01/30 04:10:14;;;;;;;2.50;0.43;;;8.90;39.30;;;;;;5074988;28;20430;-49
2022/01/30 04:12:41;;;;;;;1.20;0.50;;;9.00;38.80;;;;;;5075229;28;20175;-50
2022/01/30 04:15:08;;;;;;;1.00;0.40;;;8.70;38.80;;;;;;5074897;28;20229;-50
2022/01/30 04:17:34;;;;;;;1.00;0.30;;;8.60;39.30;;;;;;5075186;28;20197;-50
2022/01/30 04:20:00;;;;;;;2.90;0.32;;;8.80;39.00;;;;;;5073526;28;20190;-50
2022/01/30 04:22:27;;;;;;;4.60;0.77;;;8.90;38.90;;;;;;5075031;28;20171;-50
2022/01/30 04:24:53;;;;;;;1.00;0.30;;;8.90;38.50;;;;;;5074452;28;20462;-50
2022/01/30 04:27:20;;;;;;;4.47;0.90;;;8.90;39.00;;;;;;5074621;28;20215;-50
2022/01/30 04:29:46;;;;;;;4.80;0.75;;;8.90;38.60;;;;;;5074771;28;20450;-50
2022/01/30 04:32:13;;;;;;;2.08;0.55;;;8.90;39.00;;;;;;5073248;28;20179;-50
2022/01/30 04:34:42;;;;;;;1.20;0.77;;;8.80;39.10;;;;;;5074767;28;20574;-50
2022/01/30 04:37:17;;;;;;;2.30;0.93;;;8.90;38.60;;;;;;5074370;28;20670;-50
2022/01/30 04:53:39;;;;;;;1.13;0.45;;;8.90;37.60;;;;;;5074184;28;20579;-50
2022/01/30 05:07:41;;;;;;;1.90;0.70;;;8.80;37.00;;;;;;5073972;28;20159;-49
2022/01/30 05:09:36;;;;;;;1.20;0.50;;;8.80;37.10;;;;;;5068976;28;20181;-50
2022/01/30 05:12:01;;;;;;;3.07;0.73;;;8.70;37.20;;;;;;5072571;28;20175;-50
2022/01/30 05:14:33;;;;;;;1.77;0.50;;;8.70;37.20;;;;;;5074047;28;20442;-50
2022/01/30 05:16:59;;;;;;;1.27;0.68;;;8.70;36.90;;;;;;5074011;28;20250;-49
2022/01/30 05:19:26;;;;;;;6.97;0.68;;;8.70;36.90;;;;;;5073673;28;20169;-50
2022/01/30 05:21:53;;;;;;;1.83;0.80;;;8.60;37.00;;;;;;5055801;28;20169;-50
2022/01/30 05:24:19;;;;;;;1.00;0.43;;;8.70;36.80;;;;;;5073419;28;20576;-50
2022/01/30 05:26:45;;;;;;;3.57;0.83;;;8.70;36.60;;;;;;5073718;28;20171;-50
2022/01/30 05:29:12;;;;;;;1.42;0.75;;;8.70;36.70;;;;;;5072296;28;20921;-50
2022/01/30 05:31:38;;;;;;;1.05;0.35;;;8.80;36.90;;;;;;5072306;28;20180;-50
2022/01/30 05:34:05;;;;;;;1.17;0.57;;;8.80;36.80;;;;;;5072275;28;20180;-50
2022/01/30 05:36:31;;;;;;;1.35;0.88;;;8.80;36.90;;;;;;5073447;28;20259;-49
2022/01/30 05:38:58;;;;;;;1.00;0.30;;;8.80;37.00;;;;;;5073810;28;20538;-50
2022/01/30 05:41:24;;;;;;;3.17;0.50;;;8.80;37.30;;;;;;5073477;28;20175;-49
2022/01/30 05:43:54;;;;;;;1.42;0.63;;;8.90;37.20;;;;;;5073471;28;20164;-50
2022/01/30 05:46:35;;;;;;;1.73;0.40;;;9.00;36.80;;;;;;5073497;28;20247;-49
2022/01/30 05:49:04;;;;;;;1.42;0.28;;;9.00;36.70;;;;;;5073455;28;20171;-50
2022/01/30 05:51:30;;;;;;;1.27;0.43;;;8.90;36.80;;;;;;5073367;28;20633;-49
2022/01/30 05:53:56;;;;;;;1.03;0.30;;;8.90;37.10;;;;;;5072102;28;20179;-50
2022/01/30 05:56:22;;;;;;;1.10;0.50;;;9.00;37.00;;;;;;5073389;28;20456;-49
2022/01/30 05:58:48;;;;;;;1.10;0.40;;;9.00;37.10;;;;;;5072086;28;20654;-49
2022/01/30 06:01:14;;;;;;;1.00;0.40;;;9.00;36.60;;;;;;5075810;28;20211;-50
2022/01/30 06:03:39;;;;;;;1.30;0.40;;;8.80;36.70;;;;;;5077590;28;20405;-49
2022/01/30 06:06:07;;;;;;;5.13;0.47;;;8.90;36.50;;;;;;5076094;28;20580;-49
2022/01/30 06:11:09;;;;;;;8.93;1.15;;;9.00;35.70;;;;;;5077350;28;20672;-50
2022/01/30 06:13:34;;;;;;;3.75;0.93;;;8.90;35.90;;;;;;5077333;28;20167;-50
2022/01/30 06:16:00;;;;;;;1.00;0.30;;;8.90;35.80;;;;;;5077297;28;20171;-49
2022/01/30 06:18:27;;;;;;;1.48;0.57;;;8.90;36.00;;;;;;5076982;28;20662;-50
2022/01/30 06:20:53;;;;;;;1.48;0.55;;;8.90;36.30;;;;;;5077074;28;20189;-50
2022/01/30 06:23:22;;;;;;;3.60;0.43;;;8.80;35.50;;;;;;5076767;28;20170;-50
2022/01/30 06:25:48;;;;;;;1.55;0.93;;;8.70;36.00;;;;;;5077121;28;20158;-50
2022/01/30 06:28:14;;;;;;;7.93;0.88;;;8.70;35.90;;;;;;5076947;28;20165;-50
2022/01/30 06:30:40;;;;;;;1.33;0.50;;;8.70;36.30;;;;;;5077062;28;20198;-50
2022/01/30 06:33:06;;;;;;;1.50;0.87;;;8.80;36.10;;;;;;5076892;28;20176;-49
2022/01/30 06:35:31;;;;;;;1.30;0.43;;;8.90;35.90;;;;;;5075554;28;20185;-50
2022/01/30 06:37:57;;;;;;;1.47;0.70;;;9.00;35.70;;;;;;5076673;28;20278;-50
2022/01/30 06:40:26;;;;;;;2.87;0.50;;;9.10;35.30;;;;;;5076625;28;20526;-49
2022/01/30 06:42:52;;;;;;;15.25;1.17;;;9.00;35.30;;;;;;5076330;28;20651;-50
2022/01/30 06:45:19;;;;;;;1.30;0.50;;;9.00;35.00;;;;;;5076460;28;20226;-49
2022/01/30 06:47:45;;;;;;;1.67;0.75;;;9.00;35.80;;;;;;5076725;28;20532;-50
2022/01/30 06:50:12;;;;;;;2.90;1.05;;;9.00;35.70;;;;;;5075190;28;20176;-50
2022/01/30 06:52:38;;;;;;;2.70;0.63;;;9.00;35.10;;;;;;5076608;28;20191;-50
2022/01/30 06:55:05;;;;;;;1.80;0.53;;;9.00;35.40;;;;;;5075165;28;20651;-50
2022/01/30 06:57:31;;;;;;;1.40;0.65;;;9.00;35.60;;;;;;5075000;28;20452;-50
2022/01/30 06:59:57;;;;;;;1.10;0.50;;;8.90;35.70;;;;;;5076417;28;20512;-49
2022/01/30 07:02:23;;;;;;;1.00;0.30;;;8.90;35.90;;;;;;5076242;28;20164;-50
2022/01/30 07:04:49;;;;;;;4.60;0.85;;;9.00;35.80;;;;;;5076336;28;20171;-50
2022/01/30 07:07:15;;;;;;;1.33;0.60;;;9.00;35.50;;;;;;5076111;28;20182;-49
2022/01/30 07:09:41;;;;;;;1.20;0.40;;;8.90;35.70;;;;;;5074981;28;20203;-50
2022/01/30 07:12:07;;;;;;;1.40;0.40;;;8.90;36.00;;;;;;5074726;28;20190;-50
2022/01/30 07:14:33;;;;;;;1.00;0.40;;;8.90;35.60;;;;;;5076303;28;20169;-50
2022/01/30 07:16:59;;;;;;;1.30;0.63;;;8.90;36.20;;;;;;5075956;28;20253;-50
2022/01/30 07:19:25;;;;;;;1.30;0.60;;;8.90;36.00;;;;;;5075978;28;20180;-50
2022/01/30 07:21:51;;;;;;;3.40;0.68;;;8.80;36.20;;;;;;5076204;28;20819;-49
2022/01/30 07:24:17;;;;;;;1.00;0.40;;;8.90;36.30;;;;;;5075632;28;20265;-50
2022/01/30 07:26:43;;;;;;;1.37;0.50;;;8.90;36.40;;;;;;5076081;28;20207;-50
2022/01/30 07:29:09;;;;;;;3.17;1.83;;;8.90;35.70;;;;;;5075842;28;20414;-50
2022/01/30 07:31:34;;;;;;;3.80;0.73;;;8.90;36.20;;;;;;5074759;28;20187;-50
2022/01/30 07:34:01;;;;;;;2.57;0.63;;;8.80;36.20;;;;;;5075703;28;20195;-50
2022/01/30 07:36:28;;;;;;;1.95;0.60;;;8.60;36.70;;;;;;5075529;28;20161;-49
2022/01/30 07:38:55;;;;;;;2.70;0.93;;;8.60;36.70;;;;;;5075764;28;20168;-49
2022/01/30 07:41:21;;;;;;;2.03;0.93;;;8.70;36.40;;;;;;5075553;28;20171;-50
2022/01/30 07:43:47;;;;;;;1.20;0.45;;;8.70;36.50;;;;;;5075597;28;20667;-50
2022/01/30 07:46:13;;;;;;;8.85;1.75;;;8.80;36.20;;;;;;5075450;28;20644;-49
2022/01/30 07:48:39;;;;;;;11.93;1.30;;;8.80;35.90;;;;;;5075673;28;20199;-49
2022/01/30 07:51:05;;;;;;;5.03;0.57;;;8.90;36.20;;;;;;5075410;28;20425;-49
2022/01/30 07:53:31;;;;;;;2.10;0.68;;;8.90;36.10;;;;;;5075313;28;20201;-49
2022/01/30 07:55:57;;;;;;;1.40;0.57;;;8.90;36.30;;;;;;5075369;28;20670;-49
2022/01/30 07:58:22;;;;;;;4.60;1.73;;;8.90;36.30;;;;;;5073874;28;20454;-50
2022/01/30 08:00:48;;;;;;;2.20;0.73;;;9.00;36.00;;;;;;5075158;28;20420;-50
2022/01/30 08:03:14;;;;;;;1.63;0.53;;;8.90;36.30;;;;;;5075159;28;20589;-49
2022/01/30 08:05:40;;;;;;;2.03;1.00;;;9.00;35.70;;;;;;5075420;28;20410;-50
2022/01/30 08:08:06;;;;;;;2.20;1.47;;;8.90;35.70;;;;;;5075268;28;20527;-50
2022/01/30 08:10:33;;;;;;;2.53;0.95;;;8.90;36.10;;;;;;5073742;28;20516;-49
2022/01/30 08:12:59;;;;;;;6.53;1.40;;;9.00;35.80;;;;;;5074926;28;20168;-49
2022/01/30 08:15:25;;;;;;;2.75;0.95;;;9.00;35.60;;;;;;5074868;28;20165;-50
2022/01/30 08:17:51;;;;;;;1.47;0.50;;;9.00;35.30;;;;;;5073513;28;20690;-49
2022/01/30 08:20:18;;;;;;;1.47;0.90;;;9.00;35.30;;;;;;5074802;28;20442;-49
2022/01/30 08:22:48;;;;;;;4.63;0.63;;;9.00;34.90;;;;;;5074545;28;20186;-49
2022/01/30 08:25:18;;;;;;;1.35;0.47;;;9.00;35.30;;;;;;5074591;28;20208;-49
2022/01/30 08:27:44;;;;;;;5.13;1.20;;;9.00;35.30;;;;;;5073548;28;20180;-49
2022/01/30 08:30:10;;;;;;;1.95;0.70;;;9.00;35.40;;;;;;5074585;28;20175;-49
2022/01/30 08:32:48;;;;;;;1.38;0.95;;;9.00;35.50;;;;;;5073232;28;20177;-50
2022/01/30 08:35:15;;;;;;;4.72;1.00;;;8.90;35.90;;;;;;5074552;28;20210;-50
2022/01/30 08:37:41;;;;;;;1.20;0.40;;;8.70;36.50;;;;;;5074485;28;20190;-50
2022/01/30 08:40:12;;;;;;;2.60;0.93;;;8.60;36.50;;;;;;5074373;28;20685;-49
2022/01/30 08:42:38;;;;;;;1.10;0.40;;;8.50;36.90;;;;;;5073057;28;20416;-49
2022/01/30 08:45:05;;;;;;;2.03;1.03;;;8.50;37.20;;;;;;5074333;28;20173;-50
2022/01/30 08:47:31;;;;;;;18.50;2.05;;;8.50;37.00;;;;;;5072990;28;20178;-50
2022/01/30 08:49:56;;;;;;;1.10;0.60;;;8.40;37.20;;;;;;5074405;28;20171;-49
2022/01/30 08:52:22;;;;;;;1.30;0.50;;;8.40;37.30;;;;;;5074138;28;20166;-49
2022/01/30 08:54:53;;;;;;;4.90;1.00;;;8.40;37.70;;;;;;5074117;28;20164;-50
2022/01/30 08:57:19;;;;;;;3.72;1.20;;;8.40;36.80;;;;;;5073996;28;20817;-50
2022/01/30 08:59:45;;;;;;;3.15;1.98;;;8.60;36.80;;;;;;5074012;28;20190;-50
2022/01/30 09:02:12;;;;;;;8.30;1.35;;;8.80;36.20;;;;;;5072706;28;20180;-50
2022/01/30 09:04:38;;;;;;;1.92;1.15;;;8.90;36.20;;;;;;5073658;28;20201;-50
2022/01/30 09:07:04;;;;;;;2.17;0.70;;;9.00;35.80;;;;;;5034053;28;20185;-50
2022/01/30 09:09:30;;;;;;;2.30;0.75;;;9.00;35.80;;;;;;5032636;28;20176;-50
2022/01/30 09:11:58;;;;;;;3.08;1.15;;;9.10;35.40;;;;;;5032678;28;20262;-50
2022/01/30 09:14:27;;;;;;;1.70;0.55;;;9.10;35.40;;;;;;5033886;28;20223;-49
2022/01/30 09:16:53;;;;;;;3.53;1.38;;;9.00;36.30;;;;;;5033844;28;20203;-50
2022/01/30 09:19:19;;;;;;;2.10;0.80;;;9.10;36.10;;;;;;5033800;28;20174;-50
2022/01/30 09:21:46;;;;;;;2.15;0.82;;;9.20;35.40;;;;;;5033734;28;20404;-50
2022/01/30 09:24:13;;;;;;;2.75;0.45;;;9.10;35.60;;;;;;5033375;28;20255;-50
2022/01/30 09:26:38;;;;;;;1.83;1.35;;;9.20;35.40;;;;;;5034091;28;20248;-50
2022/01/30 09:29:04;;;;;;;5.17;1.10;;;9.20;35.30;;;;;;5033768;28;20589;-49
2022/01/30 09:31:30;;;;;;;6.90;1.33;;;9.30;35.10;;;;;;5033694;28;20262;-50
2022/01/30 09:33:55;;;;;;;5.23;0.93;;;9.40;35.20;;;;;;5033031;28;20193;-50
2022/01/30 09:36:21;;;;;;;2.40;0.90;;;9.20;34.80;;;;;;5033486;28;20534;-50
2022/01/30 09:38:47;;;;;;;2.37;1.03;;;9.30;35.30;;;;;;5033499;28;20292;-49
2022/01/30 09:41:13;;;;;;;4.70;0.60;;;9.30;35.30;;;;;;5033521;28;20169;-49
2022/01/30 09:43:41;;;;;;;3.38;0.80;;;9.40;35.10;;;;;;5032238;28;20177;-49
2022/01/30 09:46:07;;;;;;;1.73;0.82;;;9.40;35.00;;;;;;5033450;28;20626;-50
2022/01/30 09:48:36;;;;;;;1.30;0.47;;;9.40;35.00;;;;;;5033512;28;20170;-50
2022/01/30 09:51:08;;;;;;;3.90;0.95;;;9.30;35.30;;;;;;5033628;28;20193;-50
2022/01/30 09:53:38;;;;;;;1.45;0.90;;;9.20;35.70;;;;;;5033400;28;20256;-50
2022/01/30 09:56:06;;;;;;;9.65;1.98;;;9.20;35.00;;;;;;5033637;28;20189;-49
2022/01/30 09:58:32;;;;;;;3.17;0.98;;;9.20;35.50;;;;;;5033521;28;20196;-50
2022/01/30 10:00:58;;;;;;;2.35;1.25;;;9.10;35.40;;;;;;5033419;28;20173;-50
2022/01/30 10:03:28;;;;;;;2.85;1.30;;;9.00;35.70;;;;;;5033313;28;20162;-50
2022/01/30 10:06:06;;;;;;;1.23;0.50;;;9.20;35.50;;;;;;5033305;28;20725;-49
2022/01/30 10:08:32;;;;;;;1.38;0.70;;;9.20;35.60;;;;;;5033226;28;20255;-50
2022/01/30 10:11:01;;;;;;;1.50;0.52;;;9.30;35.50;;;;;;5033486;28;20170;-49
2022/01/30 10:13:31;;;;;;;2.97;1.48;;;9.20;35.40;;;;;;5033202;28;20168;-50
2022/01/30 10:16:03;;;;;;;3.47;1.33;;;9.30;35.30;;;;;;5033074;28;20185;-50
2022/01/30 10:18:32;;;;;;;2.15;0.80;;;9.30;34.90;;;;;;5033385;28;20714;-50
2022/01/30 10:20:59;;;;;;;4.97;1.33;;;9.30;35.20;;;;;;5033394;28;20184;-50
2022/01/30 10:23:35;;;;;;;2.22;0.95;;;9.20;35.10;;;;;;5032866;28;20261;-50
2022/01/30 10:26:07;;;;;;;4.40;0.85;;;9.10;35.30;;;;;;5033465;28;20158;-50
2022/01/30 10:28:34;;;;;;;1.25;0.57;;;9.00;35.60;;;;;;5033106;28;20200;-50
2022/01/30 10:31:08;;;;;;;3.78;1.83;;;9.00;35.30;;;;;;5033067;28;20177;-50
2022/01/30 10:33:45;;;;;;;4.70;0.98;;;9.00;35.20;;;;;;5033099;28;20172;-50
2022/01/30 10:36:17;;;;;;;2.78;1.02;;;9.00;35.50;;;;;;5033070;28;20212;-50
2022/01/30 10:38:52;;;;;;;2.53;0.60;;;9.10;35.40;;;;;;5033260;28;20203;-49
2022/01/30 10:41:31;;;;;;;8.15;1.30;;;9.20;35.30;;;;;;5032929;28;20169;-49
2022/01/30 10:43:58;;;;;;;1.95;0.95;;;9.20;35.20;;;;;;5031738;28;20216;-50
2022/01/30 10:46:28;;;;;;;1.70;0.70;;;9.30;35.30;;;;;;5035254;28;20183;-50
2022/01/30 10:49:03;;;;;;;2.35;0.57;;;9.20;35.00;;;;;;5036797;28;20176;-49
2022/01/30 10:51:31;;;;;;;1.52;1.10;;;9.20;35.10;;;;;;5036540;28;20649;-49
2022/01/30 10:54:18;;;;;;;7.97;0.82;;;9.20;35.30;;;;;;5036475;28;20665;-49
2022/01/30 10:56:43;;;;;;;2.45;1.55;;;9.20;35.40;;;;;;5036129;28;20188;-50
2022/01/30 10:59:21;;;;;;;10.00;1.90;;;9.10;35.30;;;;;;5036424;28;20172;-49
2022/01/30 11:01:49;;;;;;;1.67;0.70;;;9.10;35.60;;;;;;5035071;28;20217;-50
2022/01/30 11:04:30;;;;;;;2.78;0.60;;;9.20;35.00;;;;;;5036323;28;20162;-50
2022/01/30 11:06:58;;;;;;;1.27;0.65;;;9.20;35.10;;;;;;5036522;28;20264;-49
2022/01/30 11:09:30;;;;;;;1.33;0.70;;;9.20;34.60;;;;;;5036379;28;20177;-49
2022/01/30 11:12:03;;;;;;;5.55;1.33;;;9.20;35.20;;;;;;5036145;28;20610;-50
2022/01/30 11:14:52;;;;;;;6.85;0.88;;;9.30;34.70;;;;;;5036179;28;20182;-49
2022/01/30 11:17:19;;;;;;;3.30;1.30;;;9.30;34.60;;;;;;5036257;28;20202;-50
2022/01/30 11:19:51;;;;;;;3.13;1.15;;;9.30;34.60;;;;;;5036039;28;20169;-49
2022/01/30 11:22:22;;;;;;;3.08;1.15;;;9.20;34.40;;;;;;5036195;28;20255;-50
2022/01/30 11:24:48;;;;;;;7.95;0.98;;;9.20;34.60;;;;;;5035692;28;20259;-50
2022/01/30 11:27:23;;;;;;;1.30;0.73;;;9.30;34.60;;;;;;5035837;28;20201;-50
2022/01/30 11:29:50;;;;;;;3.10;0.70;;;9.20;34.60;;;;;;5034558;28;20170;-50
2022/01/30 11:32:18;;;;;;;2.25;1.15;;;9.20;33.90;;;;;;5035598;28;20680;-50
2022/01/30 11:34:44;;;;;;;2.42;0.80;;;9.10;34.70;;;;;;5053541;28;20256;-49
2022/01/30 11:37:13;;;;;;;12.10;1.92;;;9.00;34.30;;;;;;5055511;28;20203;-50
2022/01/30 11:39:47;;;;;;;3.63;0.75;;;9.10;34.50;;;;;;5055525;28;20278;-49
2022/01/30 11:42:23;;;;;;;4.18;0.93;;;9.10;34.30;;;;;;5055507;28;20178;-49
2022/01/30 11:44:50;;;;;;;3.60;0.93;;;9.20;34.20;;;;;;5055557;28;20173;-50
2022/01/30 11:47:18;;;;;;;1.77;1.10;;;9.20;34.20;;;;;;5055442;28;20597;-50
2022/01/30 11:50:00;;;;;;;3.25;1.17;;;9.30;34.00;;;;;;5055481;28;20705;-49
2022/01/30 11:52:54;;;;;;;1.35;0.93;;;9.30;34.00;;;;;;5055407;28;20164;-49
2022/01/30 11:55:38;;;;;;;4.45;1.95;;;9.30;34.00;;;;;;5055179;28;20667;-49
2022/01/30 11:58:04;;;;;;;5.60;1.25;;;9.40;34.30;;;;;;5054320;28;20215;-49
2022/01/30 12:00:38;;;;;;;4.72;0.93;;;9.40;33.80;;;;;;5055240;28;20267;-49
2022/01/30 12:03:25;;;;;;;2.30;0.82;;;9.40;33.90;;;;;;5055298;28;20203;-49
2022/01/30 12:05:52;;;;;;;2.03;1.15;;;9.30;34.00;;;;;;5055099;28;20641;-49
2022/01/30 12:08:44;;;;;;;1.40;0.93;;;9.40;34.00;;;;;;5055181;28;20637;-50
2022/01/30 12:11:34;;;;;;;2.08;1.00;;;9.50;33.50;;;;;;5054976;28;20238;-50
2022/01/30 12:14:01;;;;;;;2.17;0.95;;;9.40;33.60;;;;;;5054866;28;20200;-49
2022/01/30 12:16:44;;;;;;;2.95;1.98;;;9.40;33.80;;;;;;5054874;28;20165;-50
2022/01/30 12:19:16;;;;;;;2.15;1.00;;;9.40;33.60;;;;;;5053664;28;20539;-50
2022/01/30 12:21:43;;;;;;;2.28;0.85;;;9.40;33.30;;;;;;5055079;28;20166;-50
2022/01/30 12:24:28;;;;;;;1.30;0.82;;;9.40;33.40;;;;;;5054457;28;20225;-50
2022/01/30 12:27:00;;;;;;;4.45;1.42;;;9.40;33.70;;;;;;5054714;28;20164;-49
2022/01/30 12:29:38;;;;;;;1.38;0.73;;;9.40;33.30;;;;;;5054565;28;20208;-50
2022/01/30 12:32:26;;;;;;;1.92;0.75;;;9.20;33.30;;;;;;5054564;28;20168;-50
2022/01/30 12:34:54;;;;;;;4.68;2.17;;;9.20;33.20;;;;;;5054684;28;20181;-49
2022/01/30 12:37:23;;;;;;;8.68;2.05;;;9.10;33.90;;;;;;5054551;28;20205;-50
2022/01/30 12:39:48;;;;;;;1.90;0.95;;;9.30;34.10;;;;;;5053043;28;20571;-50
2022/01/30 12:42:16;;;;;;;1.10;0.57;;;9.30;33.50;;;;;;5054440;28;20165;-50
2022/01/30 12:44:42;;;;;;;1.50;0.68;;;9.30;33.50;;;;;;5054534;28;20264;-50
2022/01/30 12:47:08;;;;;;;5.15;1.30;;;9.30;33.90;;;;;;5054265;28;20180;-50
2022/01/30 12:49:41;;;;;;;1.43;0.90;;;9.40;33.10;;;;;;5054327;28;20165;-49
2022/01/30 12:52:10;;;;;;;2.13;1.40;;;9.20;33.60;;;;;;5054222;28;20739;-49
2022/01/30 12:54:41;;;;;;;2.10;0.95;;;9.20;33.70;;;;;;5054379;28;20293;-50
2022/01/30 12:57:08;;;;;;;1.58;0.77;;;9.20;33.70;;;;;;5054110;28;20211;-50
2022/01/30 12:59:34;;;;;;;2.42;1.02;;;9.20;33.50;;;;;;5054044;28;20637;-50
2022/01/30 13:02:12;;;;;;;2.60;1.00;;;9.30;33.40;;;;;;5053999;28;20171;-50
2022/01/30 13:04:38;;;;;;;2.30;0.85;;;9.30;33.40;;;;;;5052684;28;20188;-49
2022/01/30 13:07:04;;;;;;;18.93;1.00;;;9.20;33.50;;;;;;5054211;28;20252;-49
2022/01/30 13:09:31;;;;;;;2.57;1.40;;;9.30;33.80;;;;;;5052569;28;20197;-49
2022/01/30 13:12:13;;;;;;;2.80;0.70;;;9.30;33.80;;;;;;5053963;28;20409;-49
2022/01/30 13:14:41;;;;;;;1.10;0.40;;;9.40;33.20;;;;;;5054054;28;20165;-50
2022/01/30 13:17:08;;;;;;;4.35;1.70;;;9.40;33.20;;;;;;5053707;28;20205;-50
2022/01/30 13:19:37;;;;;;;2.35;1.05;;;9.50;33.10;;;;;;5053872;28;20170;-49
2022/01/30 13:22:07;;;;;;;2.50;1.08;;;9.40;33.10;;;;;;5053661;28;20240;-49
2022/01/30 13:24:33;;;;;;;3.95;1.45;;;9.20;33.90;;;;;;5053465;28;20220;-50
2022/01/30 13:27:04;;;;;;;1.50;0.90;;;9.20;34.30;;;;;;5052320;28;20169;-49
2022/01/30 13:29:34;;;;;;;3.33;1.15;;;9.10;34.30;;;;;;5053623;28;20222;-49
2022/01/30 13:32:10;;;;;;;1.30;0.82;;;9.10;34.20;;;;;;5053730;28;20185;-49
2022/01/30 13:34:38;;;;;;;5.40;1.17;;;9.10;34.30;;;;;;5053620;28;20160;-49
2022/01/30 13:37:08;;;;;;;1.63;0.73;;;9.20;34.30;;;;;;5053363;28;20199;-50
2022/01/30 13:40:02;;;;;;;4.40;0.82;;;9.20;34.00;;;;;;5053745;28;20175;-49
2022/01/30 13:47:51;;;;;;;1.60;0.73;;;9.30;34.10;;;;;;5053730;28;20239;-50
2022/01/30 13:50:19;;;;;;;3.25;0.70;;;9.20;34.10;;;;;;5053318;28;20177;-49
2022/01/30 13:52:45;;;;;;;1.63;0.50;;;9.20;34.20;;;;;;5053389;28;20161;-49
2022/01/30 13:55:11;;;;;;;3.20;1.63;;;9.30;34.40;;;;;;5053307;28;20178;-49
2022/01/30 13:57:39;;;;;;;2.85;0.82;;;9.30;33.70;;;;;;5035263;28;20200;-49
2022/01/30 14:00:07;;;;;;;2.22;0.95;;;9.30;34.10;;;;;;5053271;28;20173;-49